Time;durP1;ratioP1;P1;durP2;ratioP2;P2;SDS_P1;SDS_P2;PMS_P1;PMS_P2;Temp;Humidity;BMP_temperature;BMP_pressure;BME280_temperature;BME280_humidity;BME280_pressure;Samples;Min_cycle;Max_cycle;Signal;HPM_P1;HPM_P2
2022/05/19 00:02:00;;;;;;;9.30;4.68;;;20.80;96.40;;;;;;5015546;28;20037;-73
2022/05/19 00:04:27;;;;;;;14.30;4.93;;;20.80;96.50;;;;;;5013769;28;20051;-73
2022/05/19 00:06:52;;;;;;;10.55;4.30;;;20.80;96.50;;;;;;5015094;28;20394;-73
2022/05/19 00:09:19;;;;;;;14.43;4.88;;;20.70;96.90;;;;;;5014415;28;20030;-73
2022/05/19 00:11:46;;;;;;;11.05;4.97;;;20.70;96.90;;;;;;5015039;28;20096;-73
2022/05/19 00:14:13;;;;;;;12.38;4.93;;;20.70;97.30;;;;;;5015280;28;20083;-73
2022/05/19 00:16:39;;;;;;;10.88;4.78;;;20.60;97.40;;;;;;5015348;28;20026;-73
2022/05/19 00:19:05;;;;;;;10.48;4.40;;;20.60;97.60;;;;;;5013596;28;20474;-73
2022/05/19 00:21:31;;;;;;;15.60;5.05;;;20.50;98.00;;;;;;5014657;28;20041;-73
2022/05/19 00:23:57;;;;;;;13.40;5.57;;;20.40;98.30;;;;;;5014517;28;20507;-73
2022/05/19 00:26:23;;;;;;;15.93;5.15;;;20.30;98.70;;;;;;5014611;28;20025;-74
2022/05/19 00:28:48;;;;;;;11.80;5.47;;;20.30;98.80;;;;;;5014672;28;20030;-73
2022/05/19 00:31:15;;;;;;;10.52;4.68;;;20.40;98.60;;;;;;5014326;28;20140;-73
2022/05/19 00:33:41;;;;;;;15.05;5.47;;;20.40;98.80;;;;;;5013811;28;20025;-73
2022/05/19 00:36:12;;;;;;;14.02;5.70;;;20.30;99.20;;;;;;4995099;28;20022;-73
2022/05/19 00:38:39;;;;;;;14.00;5.80;;;20.20;99.50;;;;;;5007947;28;20393;-73
2022/05/19 00:41:06;;;;;;;14.70;6.13;;;20.20;99.60;;;;;;5014430;28;20069;-73
2022/05/19 00:43:43;;;;;;;15.50;6.00;;;20.00;99.90;;;;;;5014422;28;20025;-73
2022/05/19 00:46:19;;;;;;;13.38;6.40;;;20.00;99.90;;;;;;5013420;28;20022;-73
2022/05/19 00:49:06;;;;;;;21.80;7.18;;;20.00;99.90;;;;;;5014138;28;20441;-73
2022/05/19 00:51:53;;;;;;;14.10;7.20;;;19.90;99.90;;;;;;5014592;28;20493;-73
2022/05/19 00:54:27;;;;;;;16.08;7.00;;;19.90;99.90;;;;;;5014502;28;20544;-73
2022/05/19 00:57:16;;;;;;;13.75;6.95;;;19.90;99.90;;;;;;5014061;28;20022;-73
2022/05/19 00:59:47;;;;;;;12.02;7.03;;;19.90;99.90;;;;;;5013811;28;20045;-73
2022/05/19 01:02:17;;;;;;;14.57;7.32;;;19.80;99.90;;;;;;5013490;28;20025;-73
2022/05/19 01:04:54;;;;;;;19.52;8.05;;;19.80;99.90;;;;;;5013836;28;20022;-73
2022/05/19 01:07:28;;;;;;;13.98;8.60;;;19.90;99.90;;;;;;5014030;28;20029;-73
2022/05/19 01:09:56;;;;;;;15.80;8.15;;;19.80;99.90;;;;;;5010564;28;20026;-73
2022/05/19 01:12:22;;;;;;;20.38;8.00;;;19.70;99.90;;;;;;5013852;28;20028;-73
2022/05/19 01:14:48;;;;;;;14.27;9.02;;;19.70;99.90;;;;;;5013490;28;20030;-73
2022/05/19 01:17:14;;;;;;;17.50;9.77;;;19.60;99.90;;;;;;5014040;28;20037;-73
2022/05/19 01:19:45;;;;;;;15.00;10.00;;;19.60;99.90;;;;;;5013546;28;20108;-73
2022/05/19 01:22:37;;;;;;;21.83;10.87;;;19.50;99.90;;;;;;5012983;28;20057;-73
2022/05/19 01:25:03;;;;;;;;;;;19.50;99.90;;;;;;5013240;28;20748;-73
2022/05/19 01:27:29;;;;;;;18.38;9.90;;;19.60;99.90;;;;;;5013603;28;20000;-73
2022/05/19 01:29:55;;;;;;;22.17;11.75;;;19.50;99.90;;;;;;5013213;28;20034;-73
2022/05/19 01:32:27;;;;;;;21.92;11.40;;;19.50;99.90;;;;;;5013212;28;20096;-73
2022/05/19 01:34:53;;;;;;;19.73;11.05;;;19.50;99.90;;;;;;5012953;28;20033;-73
2022/05/19 01:37:19;;;;;;;20.60;11.05;;;19.50;99.90;;;;;;5013641;28;20022;-73
2022/05/19 01:39:53;;;;;;;27.65;11.68;;;19.50;99.90;;;;;;5013699;28;20030;-73
2022/05/19 01:42:27;;;;;;;19.27;10.85;;;19.40;99.90;;;;;;5013181;28;20026;-73
2022/05/19 01:45:12;;;;;;;26.55;12.15;;;19.40;99.90;;;;;;5012831;28;20478;-73
2022/05/19 01:48:02;;;;;;;19.80;11.25;;;19.30;99.90;;;;;;5013082;28;20022;-73
2022/05/19 01:50:44;;;;;;;18.33;11.38;;;19.30;99.90;;;;;;4972019;28;20097;-73
2022/05/19 01:53:35;;;;;;;21.67;11.85;;;19.30;99.90;;;;;;4972192;28;20043;-73
2022/05/19 01:56:16;;;;;;;17.98;10.90;;;19.30;99.90;;;;;;4972007;28;20097;-73
2022/05/19 01:59:20;;;;;;;23.30;11.97;;;19.30;99.90;;;;;;4961848;28;20027;-73
2022/05/19 02:01:57;;;;;;;28.90;11.73;;;19.30;99.90;;;;;;4943952;29;20051;-73
2022/05/19 02:04:32;;;;;;;26.30;11.40;;;19.20;99.90;;;;;;4966834;28;20034;-73
2022/05/19 02:07:07;;;;;;;25.30;11.15;;;19.20;99.90;;;;;;4972119;28;20031;-73
2022/05/19 02:09:39;;;;;;;17.13;11.10;;;19.20;99.90;;;;;;4971355;28;20037;-73
2022/05/19 02:12:08;;;;;;;23.00;11.93;;;19.20;99.90;;;;;;4971463;28;20097;-73
2022/05/19 02:14:39;;;;;;;20.02;11.65;;;19.20;99.90;;;;;;4971102;28;20109;-73
2022/05/19 02:17:09;;;;;;;18.40;11.43;;;19.20;99.90;;;;;;4971300;28;20686;-73
2022/05/19 02:19:39;;;;;;;23.63;11.70;;;19.20;99.90;;;;;;4971405;28;20035;-73
2022/05/19 02:22:08;;;;;;;22.40;10.90;;;19.20;99.90;;;;;;4972061;28;20038;-73
2022/05/19 02:24:42;;;;;;;20.67;11.02;;;19.30;99.90;;;;;;4971233;28;20019;-73
2022/05/19 02:27:26;;;;;;;22.25;11.15;;;19.20;99.90;;;;;;4974514;28;20030;-73
2022/05/19 02:29:54;;;;;;;21.75;10.93;;;19.20;99.90;;;;;;5011890;28;20029;-73
2022/05/19 02:32:20;;;;;;;21.45;10.70;;;19.10;99.90;;;;;;5011812;28;20045;-74
2022/05/19 02:34:45;;;;;;;20.73;11.63;;;19.00;99.90;;;;;;5011825;28;20033;-73
2022/05/19 02:37:11;;;;;;;20.58;11.20;;;19.10;99.90;;;;;;5012909;28;20029;-73
2022/05/19 02:39:37;;;;;;;21.58;11.25;;;19.10;99.90;;;;;;5012352;28;20030;-73
2022/05/19 02:42:02;;;;;;;19.27;11.13;;;19.00;99.90;;;;;;5011551;28;20030;-73
2022/05/19 02:44:28;;;;;;;23.83;10.57;;;19.00;99.90;;;;;;5010613;28;20025;-73
2022/05/19 02:46:54;;;;;;;25.75;11.75;;;19.00;99.90;;;;;;5012654;28;20026;-73
2022/05/19 02:49:21;;;;;;;17.08;10.13;;;19.00;99.90;;;;;;5012106;28;20448;-73
2022/05/19 02:51:47;;;;;;;21.30;10.57;;;19.00;99.90;;;;;;5012245;28;20029;-73
2022/05/19 02:54:12;;;;;;;21.92;11.25;;;19.00;99.90;;;;;;5012351;28;20096;-73
2022/05/19 02:56:38;;;;;;;24.63;11.27;;;19.00;99.90;;;;;;5011679;28;20125;-73
2022/05/19 02:59:04;;;;;;;21.92;10.55;;;19.10;99.90;;;;;;5012234;28;20030;-73
2022/05/19 03:01:29;;;;;;;20.15;11.02;;;19.00;99.90;;;;;;5012059;28;20088;-73
2022/05/19 03:03:55;;;;;;;26.05;10.95;;;19.00;99.90;;;;;;5008175;28;20026;-73
2022/05/19 03:06:21;;;;;;;18.52;10.70;;;19.00;99.90;;;;;;4992429;28;20037;-73
2022/05/19 03:08:46;;;;;;;20.38;10.20;;;19.00;99.90;;;;;;4991457;28;20077;-73
2022/05/19 03:11:12;;;;;;;20.98;10.25;;;19.00;99.90;;;;;;5000979;28;20030;-73
2022/05/19 03:13:37;;;;;;;22.02;10.40;;;19.00;99.90;;;;;;5012092;28;20093;-73
2022/05/19 03:16:07;;;;;;;22.15;10.13;;;19.00;99.90;;;;;;5012324;28;20029;-73
2022/05/19 03:18:33;;;;;;;26.85;10.93;;;18.90;99.90;;;;;;5012184;28;20508;-73
2022/05/19 03:20:59;;;;;;;18.33;10.48;;;19.00;99.90;;;;;;5011835;28;20029;-73
2022/05/19 03:23:24;;;;;;;28.63;11.68;;;18.90;99.90;;;;;;5012283;28;20022;-73
2022/05/19 03:25:50;;;;;;;23.10;10.75;;;18.90;99.90;;;;;;5011233;28;20109;-73
2022/05/19 03:28:16;;;;;;;16.38;9.77;;;18.90;99.90;;;;;;5011423;28;20389;-73
2022/05/19 03:30:43;;;;;;;21.33;11.05;;;18.90;99.90;;;;;;5011638;28;20036;-73
2022/05/19 03:33:09;;;;;;;26.95;11.40;;;18.90;99.90;;;;;;5011918;28;20026;-73
2022/05/19 03:35:34;;;;;;;21.17;9.57;;;18.90;99.90;;;;;;5011760;28;20029;-73
2022/05/19 03:38:00;;;;;;;18.88;9.73;;;18.90;99.90;;;;;;5012011;28;20101;-73
2022/05/19 03:40:26;;;;;;;22.35;10.95;;;18.90;99.90;;;;;;5010906;28;20046;-73
2022/05/19 03:42:51;;;;;;;21.10;9.60;;;18.90;99.90;;;;;;5011218;28;20030;-73
2022/05/19 03:45:17;;;;;;;14.63;9.85;;;18.90;99.90;;;;;;5012010;28;20096;-73
2022/05/19 03:47:43;;;;;;;21.42;10.73;;;18.90;99.90;;;;;;5011501;28;20113;-73
2022/05/19 03:50:10;;;;;;;20.90;10.38;;;18.90;99.90;;;;;;5012067;28;20030;-73
2022/05/19 03:52:42;;;;;;;17.63;9.98;;;18.80;99.90;;;;;;5011525;28;20112;-73
2022/05/19 03:55:09;;;;;;;21.35;10.65;;;18.80;99.90;;;;;;5014501;28;20050;-73
2022/05/19 03:57:35;;;;;;;20.52;11.38;;;18.90;99.90;;;;;;5013874;28;20037;-73
2022/05/19 04:00:03;;;;;;;17.65;10.73;;;18.90;99.90;;;;;;5015200;28;20030;-73
2022/05/19 04:02:28;;;;;;;24.33;11.18;;;18.90;99.90;;;;;;4995739;28;20018;-73
2022/05/19 04:04:54;;;;;;;20.50;10.60;;;18.90;99.90;;;;;;4995777;28;20548;-73
2022/05/19 04:07:20;;;;;;;23.17;11.02;;;18.90;99.90;;;;;;4998138;28;20438;-73
2022/05/19 04:09:45;;;;;;;21.30;9.60;;;18.90;99.90;;;;;;5014751;28;20030;-73
2022/05/19 04:12:11;;;;;;;23.40;10.90;;;18.90;99.90;;;;;;5014990;28;20030;-73
2022/05/19 04:14:37;;;;;;;19.25;10.05;;;18.90;99.90;;;;;;5015364;28;20041;-73
2022/05/19 04:17:02;;;;;;;26.02;10.98;;;18.90;99.90;;;;;;5014968;28;20033;-74
2022/05/19 04:19:28;;;;;;;21.25;10.50;;;18.90;99.90;;;;;;5014890;28;20029;-73
2022/05/19 04:21:54;;;;;;;19.23;10.43;;;18.80;99.90;;;;;;5014560;28;20030;-74
2022/05/19 04:24:19;;;;;;;22.63;11.15;;;18.80;99.90;;;;;;5014627;28;20433;-73
2022/05/19 04:26:45;;;;;;;16.88;10.68;;;18.80;99.90;;;;;;5014715;28;20108;-75
2022/05/19 04:29:11;;;;;;;18.33;10.20;;;18.80;99.90;;;;;;5015055;28;20385;-73
2022/05/19 04:31:37;;;;;;;24.45;10.52;;;18.80;99.90;;;;;;5014529;28;20046;-73
2022/05/19 04:34:05;;;;;;;18.13;10.45;;;18.80;99.90;;;;;;5011770;28;20036;-73
2022/05/19 04:36:31;;;;;;;18.33;9.95;;;18.80;99.90;;;;;;5002768;28;20026;-79
2022/05/19 04:38:56;;;;;;;24.92;10.20;;;18.80;99.90;;;;;;5001605;28;20084;-73
2022/05/19 04:41:22;;;;;;;17.38;10.43;;;18.80;99.90;;;;;;5015057;28;20033;-75
2022/05/19 04:43:47;;;;;;;19.65;10.57;;;18.80;99.90;;;;;;5010428;28;20045;-75
2022/05/19 04:46:13;;;;;;;27.02;10.07;;;18.80;99.90;;;;;;5008970;28;20394;-75
2022/05/19 04:48:39;;;;;;;21.98;10.60;;;18.80;99.90;;;;;;5006163;28;20470;-73
2022/05/19 04:51:04;;;;;;;21.42;9.40;;;18.80;99.90;;;;;;5005739;28;20030;-73
2022/05/19 04:53:30;;;;;;;30.35;11.70;;;18.80;99.90;;;;;;5005639;28;20020;-74
2022/05/19 04:55:56;;;;;;;19.25;10.23;;;18.80;99.90;;;;;;5005002;28;20564;-73
2022/05/19 04:58:23;;;;;;;20.08;10.93;;;18.80;99.90;;;;;;5002525;28;20478;-73
2022/05/19 05:00:50;;;;;;;26.27;10.98;;;18.80;99.90;;;;;;5004014;28;20105;-73
2022/05/19 05:03:16;;;;;;;22.45;10.75;;;18.80;99.90;;;;;;5002919;28;20497;-73
2022/05/19 05:05:42;;;;;;;28.35;10.65;;;18.90;99.90;;;;;;5001277;28;20525;-73
2022/05/19 05:08:08;;;;;;;20.60;9.45;;;18.90;99.90;;;;;;5003662;28;20057;-73
2022/05/19 05:10:34;;;;;;;26.38;10.70;;;18.90;99.90;;;;;;5005729;28;20030;-73
2022/05/19 05:13:11;;;;;;;25.42;10.75;;;18.90;99.90;;;;;;5005067;28;20030;-75
2022/05/19 10:33:37;;;;;;;14.57;4.57;;;25.20;93.10;;;;;;4993357;28;19917;-73
2022/05/19 10:36:21;;;;;;;15.75;4.95;;;24.90;93.60;;;;;;4993698;28;20073;-73
2022/05/19 10:39:08;;;;;;;20.75;4.80;;;25.40;93.20;;;;;;4993152;28;20476;-73
2022/05/19 10:41:39;;;;;;;12.68;4.93;;;25.40;92.90;;;;;;4992957;28;20038;-73
2022/05/19 10:44:34;;;;;;;17.65;4.30;;;25.30;92.20;;;;;;4993741;28;20023;-73
2022/05/19 10:47:05;;;;;;;18.30;4.55;;;25.50;92.60;;;;;;4993537;28;20030;-73
2022/05/19 10:50:08;;;;;;;20.35;4.85;;;25.60;92.80;;;;;;4991161;28;20072;-73
2022/05/19 10:52:50;;;;;;;15.63;4.68;;;26.40;91.40;;;;;;4970753;28;20118;-73
2022/05/19 10:55:25;;;;;;;20.23;4.63;;;26.00;92.10;;;;;;4971193;28;20513;-73
2022/05/19 10:58:23;;;;;;;15.57;4.25;;;25.80;91.90;;;;;;4970711;28;20644;-73
2022/05/19 11:00:59;;;;;;;17.08;4.90;;;25.60;91.90;;;;;;4965645;28;20033;-73
2022/05/19 11:03:37;;;;;;;18.00;4.55;;;25.90;92.10;;;;;;4970718;28;20035;-72
2022/05/19 11:06:07;;;;;;;16.52;4.57;;;25.90;91.60;;;;;;4971617;28;20031;-72
2022/05/19 11:09:00;;;;;;;12.48;4.25;;;26.20;91.60;;;;;;4971022;28;20042;-73
2022/05/19 11:11:34;;;;;;;20.23;4.60;;;25.70;91.60;;;;;;4971052;28;20175;-73
2022/05/19 11:14:10;;;;;;;18.08;4.63;;;26.00;92.10;;;;;;4951362;28;20038;-73
2022/05/19 12:55:46;;;;;;;18.33;5.13;;;26.40;89.10;;;;;;5446525;23;20100;-73
2022/05/19 12:58:37;;;;;;;14.90;4.47;;;26.60;89.10;;;;;;4981651;28;20027;-74
2022/05/19 13:01:16;;;;;;;15.07;4.65;;;26.50;89.20;;;;;;4989612;28;20137;-74
2022/05/19 13:03:45;;;;;;;20.77;5.38;;;26.50;89.20;;;;;;4990458;28;20441;-73
2022/05/19 13:06:13;;;;;;;11.35;4.60;;;26.40;90.10;;;;;;4982545;28;20149;-73
2022/05/19 13:08:49;;;;;;;17.05;4.95;;;27.20;88.50;;;;;;4977784;28;20026;-74
2022/05/19 13:11:19;;;;;;;20.50;5.00;;;27.00;89.00;;;;;;4978883;28;20031;-73
2022/05/19 13:13:47;;;;;;;15.68;4.55;;;27.00;88.30;;;;;;4985475;28;20755;-74
2022/05/19 13:16:16;;;;;;;17.73;5.30;;;26.60;88.20;;;;;;4989928;28;20109;-74
2022/05/19 13:18:53;;;;;;;15.25;4.50;;;26.40;88.30;;;;;;4987810;28;20073;-73
2022/05/19 13:21:24;;;;;;;16.73;5.22;;;26.30;89.10;;;;;;4987625;28;20034;-74
2022/05/19 13:23:50;;;;;;;16.83;5.32;;;26.50;89.10;;;;;;4985118;28;20030;-74
2022/05/19 13:26:37;;;;;;;15.00;5.25;;;26.50;88.90;;;;;;4986891;28;20062;-73
2022/05/19 13:32:03;;;;;;;18.33;5.00;;;26.30;89.70;;;;;;4982389;28;20049;-74
2022/05/19 13:34:49;;;;;;;21.40;5.20;;;26.60;89.50;;;;;;4993669;28;20018;-76
2022/05/19 13:37:37;;;;;;;18.02;5.30;;;26.70;89.30;;;;;;4992065;28;20042;-74
2022/05/19 13:40:17;;;;;;;17.40;5.22;;;26.60;89.10;;;;;;4993290;28;20026;-74
2022/05/19 13:42:53;;;;;;;12.15;4.38;;;26.90;89.50;;;;;;4992334;28;20027;-73
2022/05/19 13:45:22;;;;;;;15.45;4.70;;;26.70;89.30;;;;;;4993816;28;20036;-73
2022/05/19 13:47:49;;;;;;;17.52;5.32;;;26.90;89.90;;;;;;4992960;28;20664;-73
2022/05/19 13:50:25;;;;;;;21.33;5.03;;;27.10;88.90;;;;;;4993964;28;20022;-74
2022/05/19 13:53:02;;;;;;;13.63;4.68;;;27.20;88.90;;;;;;4993416;28;20038;-74
2022/05/19 13:55:34;;;;;;;19.65;5.95;;;26.80;88.20;;;;;;5000680;28;20517;-73
2022/05/19 13:58:00;;;;;;;11.73;4.88;;;26.30;89.50;;;;;;5012646;28;20033;-73
2022/05/19 14:00:29;;;;;;;18.02;5.00;;;26.50;89.50;;;;;;5013209;28;20026;-73
2022/05/19 14:02:59;;;;;;;17.48;4.90;;;26.60;89.30;;;;;;5012724;28;20029;-73
2022/05/19 14:05:28;;;;;;;18.45;5.05;;;26.80;89.40;;;;;;5012703;28;20014;-73
2022/05/19 14:07:59;;;;;;;17.95;5.35;;;26.70;90.10;;;;;;5012451;28;20068;-73
2022/05/19 14:10:27;;;;;;;11.48;4.50;;;26.40;90.00;;;;;;5012952;28;20037;-74
2022/05/19 14:12:56;;;;;;;15.05;5.25;;;26.70;90.30;;;;;;5012797;28;20053;-74
2022/05/19 14:15:43;;;;;;;18.25;5.43;;;26.40;90.20;;;;;;5013110;28;20509;-73
2022/05/19 14:18:13;;;;;;;22.95;5.50;;;26.10;90.10;;;;;;5011115;28;20127;-74
2022/05/19 14:20:45;;;;;;;15.43;4.43;;;26.30;90.50;;;;;;5012800;28;20029;-73
2022/05/19 14:23:32;;;;;;;15.95;5.45;;;26.30;90.40;;;;;;5012980;28;20054;-73
2022/05/19 14:26:06;;;;;;;16.73;5.10;;;26.40;90.40;;;;;;5012491;28;20069;-73
2022/05/19 14:28:36;;;;;;;19.90;5.28;;;26.30;90.60;;;;;;4995268;28;20490;-73
2022/05/19 14:31:18;;;;;;;14.95;5.35;;;26.10;90.80;;;;;;4992933;28;20026;-73
2022/05/19 14:33:57;;;;;;;17.65;4.60;;;26.20;90.70;;;;;;4992942;28;20037;-73
2022/05/19 14:36:25;;;;;;;17.00;5.32;;;26.10;90.60;;;;;;4991859;28;20457;-73
2022/05/19 14:38:59;;;;;;;19.77;4.82;;;26.50;90.30;;;;;;4992021;28;20068;-73
2022/05/19 14:44:15;;;;;;;12.48;5.03;;;26.30;90.30;;;;;;4993078;28;20028;-74
2022/05/19 14:46:41;;;;;;;15.68;5.20;;;26.10;90.30;;;;;;4992720;28;20022;-73
2022/05/19 14:49:08;;;;;;;11.52;5.32;;;26.30;90.70;;;;;;4991039;28;20036;-73
2022/05/19 14:51:37;;;;;;;12.23;5.00;;;26.30;90.50;;;;;;4992838;28;20023;-73
2022/05/19 14:54:06;;;;;;;14.00;5.20;;;26.40;90.30;;;;;;4992465;28;20053;-74
2022/05/19 14:56:48;;;;;;;12.48;5.20;;;26.60;90.60;;;;;;5007924;28;20584;-73
2022/05/19 14:59:24;;;;;;;18.10;5.55;;;26.70;90.10;;;;;;5012260;28;20041;-73
2022/05/19 15:01:51;;;;;;;17.65;5.70;;;26.40;90.00;;;;;;5012119;28;20028;-73
2022/05/19 15:04:17;;;;;;;20.95;5.50;;;25.80;90.80;;;;;;5010697;28;20037;-74
2022/05/19 15:06:42;;;;;;;19.27;5.25;;;25.90;90.80;;;;;;5012276;28;20026;-73
2022/05/19 15:09:08;;;;;;;13.00;4.72;;;25.90;90.70;;;;;;5012027;28;20444;-73
2022/05/19 15:11:34;;;;;;;17.45;5.55;;;26.10;90.50;;;;;;5011419;28;20062;-73
2022/05/19 15:14:00;;;;;;;14.73;5.47;;;26.00;90.30;;;;;;5012345;28;20034;-75
2022/05/19 15:16:26;;;;;;;18.48;5.72;;;25.90;90.40;;;;;;4996999;28;20030;-78
2022/05/19 15:18:53;;;;;;;18.15;5.28;;;26.00;91.00;;;;;;4992392;28;20030;-76
2022/05/19 15:21:19;;;;;;;23.52;5.57;;;25.90;90.70;;;;;;4992305;28;20393;-74
2022/05/19 15:23:45;;;;;;;17.05;4.80;;;25.90;90.70;;;;;;4992706;28;20027;-76
2022/05/19 15:26:13;;;;;;;19.63;5.65;;;25.90;91.10;;;;;;5004336;28;20022;-74
2022/05/19 15:28:41;;;;;;;13.60;5.10;;;26.10;91.00;;;;;;5011860;28;20493;-74
2022/05/19 15:31:08;;;;;;;13.35;5.35;;;26.20;90.70;;;;;;5011540;28;20377;-73
2022/05/19 15:33:34;;;;;;;17.48;5.15;;;25.80;91.10;;;;;;5011212;28;20481;-74
2022/05/19 15:36:00;;;;;;;12.98;5.43;;;25.60;91.40;;;;;;5010505;28;20034;-77
2022/05/19 15:38:26;;;;;;;19.85;6.13;;;25.50;92.00;;;;;;5012112;28;20041;-74
2022/05/19 15:40:52;;;;;;;14.77;6.00;;;25.60;91.60;;;;;;5012369;28;20022;-74
2022/05/19 15:43:19;;;;;;;14.25;5.57;;;25.50;91.60;;;;;;5007952;28;20033;-74
2022/05/19 15:45:45;;;;;;;21.40;5.93;;;25.50;91.70;;;;;;5004554;28;20401;-74
2022/05/19 15:48:11;;;;;;;14.45;5.18;;;25.70;91.80;;;;;;5010288;28;20029;-74
2022/05/19 15:50:44;;;;;;;14.40;5.57;;;25.50;91.90;;;;;;5013309;28;20033;-74
2022/05/19 15:53:12;;;;;;;23.73;6.22;;;25.40;92.00;;;;;;5015221;28;20034;-74
2022/05/19 15:55:50;;;;;;;18.15;5.85;;;25.50;92.20;;;;;;4996444;28;20054;-74
2022/05/19 15:58:17;;;;;;;14.02;4.82;;;25.80;91.90;;;;;;4995495;28;20054;-74
2022/05/19 16:00:44;;;;;;;13.73;4.60;;;25.80;91.80;;;;;;4995385;28;20557;-74
2022/05/19 16:03:16;;;;;;;17.25;6.00;;;25.50;92.00;;;;;;4995663;28;20145;-74
2022/05/19 16:05:41;;;;;;;14.80;5.50;;;25.10;92.50;;;;;;4995787;28;20014;-74
2022/05/19 16:08:07;;;;;;;18.35;5.55;;;25.10;92.50;;;;;;4996836;28;20026;-74
2022/05/19 16:10:33;;;;;;;38.65;6.57;;;25.10;92.80;;;;;;5010894;28;20387;-74
2022/05/19 16:13:00;;;;;;;17.00;5.95;;;25.00;92.30;;;;;;5007504;28;20489;-75
2022/05/19 16:15:25;;;;;;;16.25;5.95;;;25.10;92.60;;;;;;5005202;28;20021;-74
2022/05/19 16:17:52;;;;;;;15.60;5.45;;;25.00;92.70;;;;;;4999206;28;20530;-74
2022/05/19 16:20:21;;;;;;;20.77;5.82;;;24.90;92.90;;;;;;5012267;28;20026;-73
2022/05/19 16:22:49;;;;;;;11.27;5.47;;;25.10;93.30;;;;;;5015303;28;20014;-73
2022/05/19 16:25:22;;;;;;;25.60;5.25;;;25.10;92.90;;;;;;5014853;28;20359;-73
2022/05/19 16:27:49;;;;;;;16.17;5.85;;;25.20;93.20;;;;;;5010320;28;20022;-73
2022/05/19 16:30:16;;;;;;;16.80;5.38;;;24.70;93.20;;;;;;4997627;28;20084;-72
2022/05/19 16:32:43;;;;;;;16.50;5.60;;;24.70;93.60;;;;;;5014856;28;20033;-72
2022/05/19 16:35:10;;;;;;;14.32;5.40;;;24.60;93.80;;;;;;5014680;28;20034;-73
2022/05/19 16:37:37;;;;;;;14.15;5.65;;;24.60;93.80;;;;;;5015189;28;20109;-73
2022/05/19 16:40:06;;;;;;;17.27;5.53;;;24.60;94.10;;;;;;5014511;28;20022;-72
2022/05/19 16:42:32;;;;;;;19.27;6.03;;;24.40;93.80;;;;;;5011905;28;20483;-72
2022/05/19 16:44:58;;;;;;;16.27;6.28;;;24.40;94.30;;;;;;5012975;28;20025;-72
2022/05/19 16:47:24;;;;;;;18.70;5.50;;;24.40;94.20;;;;;;5007937;28;20469;-73
2022/05/19 16:49:50;;;;;;;16.75;5.75;;;24.20;94.70;;;;;;5009053;28;20029;-73
2022/05/19 16:52:16;;;;;;;13.75;6.22;;;24.20;94.70;;;;;;5005065;28;20033;-73
2022/05/19 16:57:41;;;;;;;15.40;5.95;;;24.20;94.90;;;;;;5013766;28;20520;-73
2022/05/19 17:00:22;;;;;;;13.80;5.80;;;24.10;95.10;;;;;;5010594;28;20390;-73
2022/05/19 17:02:49;;;;;;;21.70;6.60;;;23.80;95.50;;;;;;5012633;28;20044;-72
2022/05/19 17:05:17;;;;;;;19.48;6.03;;;23.80;95.70;;;;;;5014130;28;20036;-73
2022/05/19 17:07:43;;;;;;;21.90;6.63;;;23.80;95.80;;;;;;5013453;28;20401;-73
2022/05/19 17:10:21;;;;;;;13.52;5.40;;;23.80;95.70;;;;;;5012237;28;20033;-73
2022/05/19 17:12:48;;;;;;;13.60;6.00;;;23.80;95.90;;;;;;5007592;28;20026;-73
2022/05/19 17:15:15;;;;;;;25.50;7.05;;;23.60;96.30;;;;;;5007247;28;20026;-73
2022/05/19 17:17:42;;;;;;;20.55;6.63;;;23.60;96.30;;;;;;5021333;28;20026;-73
2022/05/19 17:20:09;;;;;;;17.35;6.20;;;23.70;96.00;;;;;;5010623;28;20028;-73
2022/05/19 17:22:35;;;;;;;18.55;6.20;;;23.50;96.50;;;;;;5011238;28;20026;-75
2022/05/19 17:25:01;;;;;;;18.70;6.45;;;23.40;96.50;;;;;;5010589;28;20029;-73
2022/05/19 17:27:27;;;;;;;16.02;6.05;;;23.20;96.70;;;;;;5002101;28;20030;-73
2022/05/19 17:29:52;;;;;;;15.07;6.25;;;23.20;97.00;;;;;;5000350;28;20022;-73
2022/05/19 17:32:18;;;;;;;21.27;6.60;;;23.30;96.90;;;;;;5010921;28;20113;-72
2022/05/19 17:34:44;;;;;;;13.45;5.22;;;23.10;97.00;;;;;;5007893;28;20034;-73
2022/05/19 17:37:10;;;;;;;20.15;5.82;;;23.20;97.10;;;;;;5007934;28;20022;-73
2022/05/19 17:39:36;;;;;;;21.48;5.70;;;23.20;97.20;;;;;;5009003;28;20057;-73
2022/05/19 17:42:02;;;;;;;15.93;5.97;;;23.20;97.20;;;;;;5007325;28;20022;-73
2022/05/19 17:44:29;;;;;;;16.42;5.85;;;23.10;97.10;;;;;;5008671;28;20022;-76
2022/05/19 17:46:55;;;;;;;21.92;6.38;;;23.00;96.90;;;;;;5007662;28;20018;-73
2022/05/19 17:49:21;;;;;;;16.80;5.22;;;22.80;97.10;;;;;;5000371;28;20034;-74
2022/05/19 17:51:47;;;;;;;18.48;6.40;;;22.70;97.50;;;;;;5000235;28;20022;-76
2022/05/19 17:54:14;;;;;;;13.43;5.72;;;22.70;97.60;;;;;;5013907;28;20501;-75
2022/05/19 17:56:40;;;;;;;14.63;6.10;;;22.50;97.60;;;;;;5013105;28;20453;-74
2022/05/19 17:59:06;;;;;;;16.92;5.78;;;22.70;97.80;;;;;;5030770;28;20138;-74
2022/05/19 18:01:32;;;;;;;16.80;6.60;;;22.60;97.90;;;;;;5028623;28;20030;-75
2022/05/19 18:03:58;;;;;;;15.90;6.00;;;22.50;98.00;;;;;;5012400;28;20030;-75
2022/05/19 18:06:23;;;;;;;17.08;5.93;;;22.50;97.80;;;;;;5013129;28;20037;-74
2022/05/19 18:08:49;;;;;;;19.65;6.63;;;22.40;97.90;;;;;;5013037;28;20022;-74
2022/05/19 18:11:16;;;;;;;17.65;6.00;;;22.40;98.10;;;;;;5011494;28;20031;-74
2022/05/19 18:13:42;;;;;;;14.95;5.63;;;22.30;98.10;;;;;;5013367;28;20038;-74
2022/05/19 18:18:53;;;;;;;14.68;5.57;;;22.20;98.30;;;;;;5008515;28;20040;-73
2022/05/19 18:21:19;;;;;;;20.63;6.10;;;22.10;98.40;;;;;;5012741;28;20026;-76
2022/05/19 18:23:44;;;;;;;21.35;5.95;;;22.10;98.60;;;;;;4998309;28;20028;-75
2022/05/19 18:26:15;;;;;;;20.10;6.32;;;22.00;98.70;;;;;;5013020;28;20105;-74
2022/05/19 18:28:44;;;;;;;15.60;5.93;;;22.00;98.70;;;;;;5012870;28;20476;-75
2022/05/19 18:31:11;;;;;;;16.83;5.97;;;21.80;98.60;;;;;;5012520;28;20048;-72
2022/05/19 18:33:37;;;;;;;15.75;5.70;;;21.80;98.60;;;;;;5008109;28;20037;-72
2022/05/19 18:36:06;;;;;;;17.75;5.72;;;21.80;98.60;;;;;;5013159;28;20366;-71
2022/05/19 18:38:32;;;;;;;15.93;5.57;;;21.80;98.80;;;;;;5001040;28;20048;-71
2022/05/19 18:46:28;;;;;;;17.35;5.95;;;21.60;98.90;;;;;;5011459;28;20500;-75
2022/05/19 18:48:54;;;;;;;13.68;5.85;;;21.40;99.20;;;;;;5013086;28;20041;-75
2022/05/19 18:51:20;;;;;;;22.08;6.57;;;21.40;99.30;;;;;;5013310;28;20022;-75
2022/05/19 18:53:47;;;;;;;16.42;6.75;;;21.30;99.30;;;;;;5010051;28;20401;-75
2022/05/19 18:56:15;;;;;;;15.82;5.72;;;21.40;99.40;;;;;;4994869;28;20034;-75
2022/05/19 18:58:43;;;;;;;21.88;5.53;;;21.40;99.50;;;;;;5014138;28;20112;-76
2022/05/19 19:01:10;;;;;;;20.17;5.70;;;21.30;99.60;;;;;;5032564;28;20064;-76
2022/05/19 19:03:36;;;;;;;14.27;6.20;;;21.20;99.90;;;;;;5032502;28;20100;-75
2022/05/19 19:06:04;;;;;;;17.50;6.63;;;21.20;99.90;;;;;;5023489;28;20100;-76
2022/05/19 19:08:32;;;;;;;19.55;6.55;;;21.10;99.90;;;;;;5012678;28;20029;-75
2022/05/19 19:11:02;;;;;;;15.50;5.28;;;21.00;99.90;;;;;;5009968;28;20030;-75
2022/05/19 19:13:28;;;;;;;17.60;5.82;;;20.90;99.90;;;;;;5012509;28;20026;-75
2022/05/19 19:15:57;;;;;;;18.08;6.78;;;20.80;99.90;;;;;;4998452;28;20370;-75
2022/05/19 19:18:24;;;;;;;14.77;6.10;;;20.80;99.90;;;;;;4993183;28;20088;-75
2022/05/19 19:20:50;;;;;;;19.05;5.45;;;20.80;99.90;;;;;;5001301;28;20473;-76
2022/05/19 19:23:16;;;;;;;15.50;6.85;;;20.80;99.90;;;;;;5012041;28;20026;-75
2022/05/19 19:25:42;;;;;;;17.27;6.30;;;20.70;99.90;;;;;;5013564;28;20045;-75
2022/05/19 19:28:09;;;;;;;15.32;5.55;;;20.60;99.90;;;;;;5010009;28;20037;-75
2022/05/19 19:30:37;;;;;;;22.58;6.30;;;20.60;99.90;;;;;;4996771;28;20033;-75
2022/05/19 19:33:04;;;;;;;16.50;6.35;;;20.60;99.90;;;;;;4995801;28;20034;-75
2022/05/19 19:35:30;;;;;;;21.73;6.78;;;20.60;99.90;;;;;;4996281;28;20109;-75
2022/05/19 19:37:56;;;;;;;16.30;6.25;;;20.50;99.90;;;;;;4995862;28;20026;-75
2022/05/19 19:40:22;;;;;;;23.92;6.70;;;20.50;99.90;;;;;;4996227;28;20117;-75
2022/05/19 19:42:49;;;;;;;16.77;6.40;;;20.50;99.90;;;;;;4999936;28;20481;-75
2022/05/19 19:45:16;;;;;;;19.15;7.05;;;20.40;99.90;;;;;;5016214;28;20014;-75
2022/05/19 19:47:42;;;;;;;16.00;6.00;;;20.50;99.90;;;;;;5016044;28;20030;-75
2022/05/19 19:52:54;;;;;;;12.35;6.03;;;20.30;99.90;;;;;;5015402;28;20041;-75
2022/05/19 19:55:21;;;;;;;16.20;6.13;;;20.30;99.90;;;;;;5013617;28;20038;-75
2022/05/19 19:57:47;;;;;;;17.13;5.88;;;20.20;99.90;;;;;;5011409;28;20034;-75
2022/05/19 20:00:14;;;;;;;23.27;7.03;;;20.30;99.90;;;;;;4999073;28;20036;-75
2022/05/19 20:02:40;;;;;;;13.50;6.78;;;20.20;99.90;;;;;;4996101;28;20483;-75
2022/05/19 20:05:07;;;;;;;16.60;6.53;;;20.30;99.90;;;;;;4995456;28;20022;-75